sensor_id;sensor_type;location;lat;lon;timestamp;temperature;humidity
64111;DHT22;50401;48.188;11.566;2022-10-16T00:01:41;14.42;86.36
64111;DHT22;50401;48.188;11.566;2022-10-16T00:04:06;14.37;86.51
64111;DHT22;50401;48.188;11.566;2022-10-16T00:06:32;14.32;86.69
64111;DHT22;50401;48.188;11.566;2022-10-16T00:08:57;14.40;86.48
64111;DHT22;50401;48.188;11.566;2022-10-16T00:11:24;14.28;86.64
64111;DHT22;50401;48.188;11.566;2022-10-16T00:13:51;14.22;86.92
64111;DHT22;50401;48.188;11.566;2022-10-16T00:16:17;14.25;86.84
64111;DHT22;50401;48.188;11.566;2022-10-16T00:18:43;14.29;86.62
64111;DHT22;50401;48.188;11.566;2022-10-16T00:21:16;14.22;86.88
64111;DHT22;50401;48.188;11.566;2022-10-16T00:23:42;14.25;86.68
64111;DHT22;50401;48.188;11.566;2022-10-16T00:26:09;14.22;86.77
64111;DHT22;50401;48.188;11.566;2022-10-16T00:28:34;14.22;86.75
64111;DHT22;50401;48.188;11.566;2022-10-16T00:31:04;14.18;86.89
64111;DHT22;50401;48.188;11.566;2022-10-16T00:33:29;14.25;86.69
64111;DHT22;50401;48.188;11.566;2022-10-16T00:35:57;14.17;86.77
64111;DHT22;50401;48.188;11.566;2022-10-16T00:38:22;14.08;87.14
64111;DHT22;50401;48.188;11.566;2022-10-16T00:40:47;14.07;87.21
64111;DHT22;50401;48.188;11.566;2022-10-16T00:43:33;14.04;87.25
64111;DHT22;50401;48.188;11.566;2022-10-16T00:45:58;14.14;86.95
64111;DHT22;50401;48.188;11.566;2022-10-16T00:48:24;14.19;86.66
64111;DHT22;50401;48.188;11.566;2022-10-16T00:50:49;14.21;86.46
64111;DHT22;50401;48.188;11.566;2022-10-16T00:53:15;14.18;86.63
64111;DHT22;50401;48.188;11.566;2022-10-16T00:55:41;14.08;86.83
64111;DHT22;50401;48.188;11.566;2022-10-16T00:58:06;14.07;86.81
64111;DHT22;50401;48.188;11.566;2022-10-16T01:00:32;14.01;87.04
64111;DHT22;50401;48.188;11.566;2022-10-16T01:02:59;14.04;86.91
64111;DHT22;50401;48.188;11.566;2022-10-16T01:06:27;14.12;86.73
64111;DHT22;50401;48.188;11.566;2022-10-16T01:08:22;14.17;86.42
64111;DHT22;50401;48.188;11.566;2022-10-16T01:11:16;14.24;86.29
64111;DHT22;50401;48.188;11.566;2022-10-16T01:13:43;14.28;85.94
64111;DHT22;50401;48.188;11.566;2022-10-16T01:16:16;14.29;85.75
64111;DHT22;50401;48.188;11.566;2022-10-16T01:18:46;14.35;85.52
64111;DHT22;50401;48.188;11.566;2022-10-16T01:21:24;14.43;85.37
64111;DHT22;50401;48.188;11.566;2022-10-16T01:31:17;14.19;85.74
64111;DHT22;50401;48.188;11.566;2022-10-16T01:33:44;14.12;85.99
64111;DHT22;50401;48.188;11.566;2022-10-16T01:36:15;14.10;86.05
64111;DHT22;50401;48.188;11.566;2022-10-16T01:38:41;14.08;86.15
64111;DHT22;50401;48.188;11.566;2022-10-16T01:41:10;14.02;86.31
64111;DHT22;50401;48.188;11.566;2022-10-16T01:43:38;14.04;86.23
64111;DHT22;50401;48.188;11.566;2022-10-16T01:46:05;14.00;86.40
64111;DHT22;50401;48.188;11.566;2022-10-16T01:48:30;14.00;86.25
64111;DHT22;50401;48.188;11.566;2022-10-16T01:51:01;14.04;86.25
64111;DHT22;50401;48.188;11.566;2022-10-16T01:53:27;14.04;86.09
64111;DHT22;50401;48.188;11.566;2022-10-16T01:55:54;14.07;85.99
64111;DHT22;50401;48.188;11.566;2022-10-16T01:58:20;14.11;85.78
64111;DHT22;50401;48.188;11.566;2022-10-16T02:00:46;14.17;85.53
64111;DHT22;50401;48.188;11.566;2022-10-16T02:03:13;14.15;85.42
64111;DHT22;50401;48.188;11.566;2022-10-16T02:05:45;14.14;85.45
64111;DHT22;50401;48.188;11.566;2022-10-16T02:08:11;14.12;85.52
64111;DHT22;50401;48.188;11.566;2022-10-16T02:10:37;14.17;85.41
64111;DHT22;50401;48.188;11.566;2022-10-16T02:15:31;14.10;85.55
64111;DHT22;50401;48.188;11.566;2022-10-16T02:17:56;14.04;85.75
64111;DHT22;50401;48.188;11.566;2022-10-16T02:20:23;13.98;85.89
64111;DHT22;50401;48.188;11.566;2022-10-16T02:22:50;13.95;86.06
64111;DHT22;50401;48.188;11.566;2022-10-16T02:25:24;13.94;85.97
64111;DHT22;50401;48.188;11.566;2022-10-16T02:27:55;13.94;85.90
64111;DHT22;50401;48.188;11.566;2022-10-16T02:30:28;13.93;85.90
64111;DHT22;50401;48.188;11.566;2022-10-16T02:32:55;13.94;85.83
64111;DHT22;50401;48.188;11.566;2022-10-16T02:35:21;13.93;85.77
64111;DHT22;50401;48.188;11.566;2022-10-16T02:37:48;14.00;85.45
64111;DHT22;50401;48.188;11.566;2022-10-16T02:40:14;13.95;85.43
64111;DHT22;50401;48.188;11.566;2022-10-16T02:42:40;13.91;85.47
64111;DHT22;50401;48.188;11.566;2022-10-16T02:45:06;13.97;85.22
64111;DHT22;50401;48.188;11.566;2022-10-16T02:47:31;13.97;85.00
64111;DHT22;50401;48.188;11.566;2022-10-16T02:49:57;13.93;85.27
64111;DHT22;50401;48.188;11.566;2022-10-16T02:52:22;13.90;85.22
64111;DHT22;50401;48.188;11.566;2022-10-16T02:54:47;13.90;85.19
64111;DHT22;50401;48.188;11.566;2022-10-16T02:57:12;13.91;85.11
64111;DHT22;50401;48.188;11.566;2022-10-16T02:59:38;13.88;85.18
64111;DHT22;50401;48.188;11.566;2022-10-16T03:02:03;13.93;85.15
64111;DHT22;50401;48.188;11.566;2022-10-16T03:04:28;13.91;84.92
64111;DHT22;50401;48.188;11.566;2022-10-16T03:06:54;13.81;85.27
64111;DHT22;50401;48.188;11.566;2022-10-16T03:09:19;13.71;85.72
64111;DHT22;50401;48.188;11.566;2022-10-16T03:11:44;13.66;85.85
64111;DHT22;50401;48.188;11.566;2022-10-16T03:14:09;13.67;85.75
64111;DHT22;50401;48.188;11.566;2022-10-16T03:16:35;13.63;85.75
64111;DHT22;50401;48.188;11.566;2022-10-16T03:19:00;13.60;85.84
64111;DHT22;50401;48.188;11.566;2022-10-16T03:21:26;13.63;85.70
64111;DHT22;50401;48.188;11.566;2022-10-16T03:23:51;13.67;85.51
64111;DHT22;50401;48.188;11.566;2022-10-16T03:26:16;13.70;85.38
64111;DHT22;50401;48.188;11.566;2022-10-16T03:28:41;13.63;85.55
64111;DHT22;50401;48.188;11.566;2022-10-16T03:31:07;13.66;85.60
64111;DHT22;50401;48.188;11.566;2022-10-16T03:33:33;13.65;85.48
64111;DHT22;50401;48.188;11.566;2022-10-16T03:35:58;13.55;85.81
64111;DHT22;50401;48.188;11.566;2022-10-16T03:38:24;13.56;85.81
64111;DHT22;50401;48.188;11.566;2022-10-16T03:40:49;13.62;85.68
64111;DHT22;50401;48.188;11.566;2022-10-16T03:43:14;13.70;85.44
64111;DHT22;50401;48.188;11.566;2022-10-16T03:45:39;13.71;85.22
64111;DHT22;50401;48.188;11.566;2022-10-16T03:48:05;13.73;85.13
64111;DHT22;50401;48.188;11.566;2022-10-16T03:50:30;13.65;85.49
64111;DHT22;50401;48.188;11.566;2022-10-16T03:52:56;13.71;85.27
64111;DHT22;50401;48.188;11.566;2022-10-16T03:55:21;13.74;85.16
64111;DHT22;50401;48.188;11.566;2022-10-16T03:57:46;13.81;84.94
64111;DHT22;50401;48.188;11.566;2022-10-16T04:00:12;13.88;84.65
64111;DHT22;50401;48.188;11.566;2022-10-16T04:02:37;13.87;84.58
64111;DHT22;50401;48.188;11.566;2022-10-16T04:05:02;13.91;84.41
64111;DHT22;50401;48.188;11.566;2022-10-16T04:07:28;13.87;84.66
64111;DHT22;50401;48.188;11.566;2022-10-16T04:09:53;13.85;84.61
64111;DHT22;50401;48.188;11.566;2022-10-16T04:12:19;13.90;84.65
64111;DHT22;50401;48.188;11.566;2022-10-16T04:14:44;14.01;84.56
64111;DHT22;50401;48.188;11.566;2022-10-16T04:17:09;14.07;84.28
64111;DHT22;50401;48.188;11.566;2022-10-16T04:19:34;14.15;84.11
64111;DHT22;50401;48.188;11.566;2022-10-16T04:22:00;14.10;83.64
64111;DHT22;50401;48.188;11.566;2022-10-16T04:24:25;14.02;83.83
64111;DHT22;50401;48.188;11.566;2022-10-16T04:26:51;14.10;83.85
64111;DHT22;50401;48.188;11.566;2022-10-16T04:29:16;14.04;83.98
64111;DHT22;50401;48.188;11.566;2022-10-16T04:31:41;14.01;83.77
64111;DHT22;50401;48.188;11.566;2022-10-16T04:34:06;13.98;83.63
64111;DHT22;50401;48.188;11.566;2022-10-16T04:36:32;14.00;83.48
64111;DHT22;50401;48.188;11.566;2022-10-16T04:38:57;14.01;83.34
64111;DHT22;50401;48.188;11.566;2022-10-16T04:41:22;13.98;83.47
64111;DHT22;50401;48.188;11.566;2022-10-16T04:43:47;14.00;83.40
64111;DHT22;50401;48.188;11.566;2022-10-16T04:46:13;14.01;83.35
64111;DHT22;50401;48.188;11.566;2022-10-16T04:48:38;14.07;83.00
64111;DHT22;50401;48.188;11.566;2022-10-16T04:51:03;14.07;82.84
64111;DHT22;50401;48.188;11.566;2022-10-16T04:53:29;14.14;82.76
64111;DHT22;50401;48.188;11.566;2022-10-16T04:55:54;14.18;82.69
64111;DHT22;50401;48.188;11.566;2022-10-16T04:58:21;14.17;82.47
64111;DHT22;50401;48.188;11.566;2022-10-16T05:00:46;14.18;82.54
64111;DHT22;50401;48.188;11.566;2022-10-16T05:03:12;14.18;82.58
64111;DHT22;50401;48.188;11.566;2022-10-16T05:05:41;14.29;82.53
64111;DHT22;50401;48.188;11.566;2022-10-16T05:08:07;14.24;82.30
64111;DHT22;50401;48.188;11.566;2022-10-16T05:10:32;14.32;82.08
64111;DHT22;50401;48.188;11.566;2022-10-16T05:12:57;14.21;82.20
64111;DHT22;50401;48.188;11.566;2022-10-16T05:15:22;14.19;82.25
64111;DHT22;50401;48.188;11.566;2022-10-16T05:17:51;14.17;82.73
64111;DHT22;50401;48.188;11.566;2022-10-16T05:20:17;14.22;82.62
64111;DHT22;50401;48.188;11.566;2022-10-16T05:22:42;14.15;82.69
64111;DHT22;50401;48.188;11.566;2022-10-16T05:25:07;14.24;82.69
64111;DHT22;50401;48.188;11.566;2022-10-16T05:27:33;14.25;82.48
64111;DHT22;50401;48.188;11.566;2022-10-16T05:29:58;14.26;82.51
64111;DHT22;50401;48.188;11.566;2022-10-16T05:32:23;14.35;82.50
64111;DHT22;50401;48.188;11.566;2022-10-16T05:34:48;14.42;82.36
64111;DHT22;50401;48.188;11.566;2022-10-16T05:37:15;14.45;82.22
64111;DHT22;50401;48.188;11.566;2022-10-16T05:39:40;14.50;82.15
64111;DHT22;50401;48.188;11.566;2022-10-16T05:42:06;14.39;82.10
64111;DHT22;50401;48.188;11.566;2022-10-16T05:44:31;14.35;82.10
64111;DHT22;50401;48.188;11.566;2022-10-16T05:46:56;14.40;82.10
64111;DHT22;50401;48.188;11.566;2022-10-16T05:49:21;14.50;82.00
64111;DHT22;50401;48.188;11.566;2022-10-16T05:51:47;14.64;81.70
64111;DHT22;50401;48.188;11.566;2022-10-16T05:54:12;14.77;81.34
64111;DHT22;50401;48.188;11.566;2022-10-16T05:56:37;14.78;81.45
64111;DHT22;50401;48.188;11.566;2022-10-16T05:59:03;14.78;81.48
64111;DHT22;50401;48.188;11.566;2022-10-16T06:01:29;14.77;81.26
64111;DHT22;50401;48.188;11.566;2022-10-16T06:03:54;14.77;80.99
64111;DHT22;50401;48.188;11.566;2022-10-16T06:06:20;14.66;81.32
64111;DHT22;50401;48.188;11.566;2022-10-16T06:08:46;14.55;81.71
64111;DHT22;50401;48.188;11.566;2022-10-16T06:11:16;14.26;82.49
64111;DHT22;50401;48.188;11.566;2022-10-16T06:13:41;14.28;82.21
64111;DHT22;50401;48.188;11.566;2022-10-16T06:16:08;14.35;82.18
64111;DHT22;50401;48.188;11.566;2022-10-16T06:18:33;14.33;82.19
64111;DHT22;50401;48.188;11.566;2022-10-16T06:20:58;14.40;81.88
64111;DHT22;50401;48.188;11.566;2022-10-16T06:23:24;14.35;82.12
64111;DHT22;50401;48.188;11.566;2022-10-16T06:25:49;14.47;81.91
64111;DHT22;50401;48.188;11.566;2022-10-16T06:28:15;14.64;81.49
64111;DHT22;50401;48.188;11.566;2022-10-16T06:30:40;14.76;81.40
64111;DHT22;50401;48.188;11.566;2022-10-16T06:33:05;14.92;81.05
64111;DHT22;50401;48.188;11.566;2022-10-16T06:35:31;15.02;80.79
64111;DHT22;50401;48.188;11.566;2022-10-16T06:37:57;15.09;80.43
64111;DHT22;50401;48.188;11.566;2022-10-16T06:40:22;15.15;80.13
64111;DHT22;50401;48.188;11.566;2022-10-16T06:42:47;15.21;80.07
64111;DHT22;50401;48.188;11.566;2022-10-16T06:45:13;15.22;79.87
64111;DHT22;50401;48.188;11.566;2022-10-16T06:47:38;15.26;79.64
64111;DHT22;50401;48.188;11.566;2022-10-16T06:50:04;15.28;79.18
64111;DHT22;50401;48.188;11.566;2022-10-16T06:52:31;15.36;79.20
64111;DHT22;50401;48.188;11.566;2022-10-16T06:54:56;15.44;78.97
64111;DHT22;50401;48.188;11.566;2022-10-16T06:57:22;15.53;78.94
64111;DHT22;50401;48.188;11.566;2022-10-16T06:59:47;15.64;78.63
64111;DHT22;50401;48.188;11.566;2022-10-16T07:02:12;15.78;78.19
64111;DHT22;50401;48.188;11.566;2022-10-16T07:04:37;15.91;77.52
64111;DHT22;50401;48.188;11.566;2022-10-16T07:07:03;16.02;76.98
64111;DHT22;50401;48.188;11.566;2022-10-16T07:09:28;16.19;76.52
64111;DHT22;50401;48.188;11.566;2022-10-16T07:11:53;16.44;76.03
64111;DHT22;50401;48.188;11.566;2022-10-16T07:14:19;16.81;74.93
64111;DHT22;50401;48.188;11.566;2022-10-16T07:16:45;17.02;73.82
64111;DHT22;50401;48.188;11.566;2022-10-16T07:19:11;17.22;73.31
64111;DHT22;50401;48.188;11.566;2022-10-16T07:21:38;17.16;72.78
64111;DHT22;50401;48.188;11.566;2022-10-16T07:24:10;17.00;73.44
64111;DHT22;50401;48.188;11.566;2022-10-16T07:26:36;17.30;72.96
64111;DHT22;50401;48.188;11.566;2022-10-16T07:29:02;17.58;72.22
64111;DHT22;50401;48.188;11.566;2022-10-16T07:31:28;19.08;69.19
64111;DHT22;50401;48.188;11.566;2022-10-16T07:33:54;22.46;58.88
64111;DHT22;50401;48.188;11.566;2022-10-16T07:36:20;20.14;62.82
64111;DHT22;50401;48.188;11.566;2022-10-16T07:38:46;21.46;60.75
64111;DHT22;50401;48.188;11.566;2022-10-16T07:41:12;24.89;51.99
64111;DHT22;50401;48.188;11.566;2022-10-16T07:43:38;24.30;52.85
64111;DHT22;50401;48.188;11.566;2022-10-16T07:46:03;21.12;59.74
64111;DHT22;50401;48.188;11.566;2022-10-16T07:48:30;21.41;59.43
64111;DHT22;50401;48.188;11.566;2022-10-16T07:51:02;24.89;52.28
64111;DHT22;50401;48.188;11.566;2022-10-16T07:53:28;28.42;44.18
64111;DHT22;50401;48.188;11.566;2022-10-16T07:56:00;28.55;42.30
64111;DHT22;50401;48.188;11.566;2022-10-16T07:58:26;28.91;41.79
64111;DHT22;50401;48.188;11.566;2022-10-16T08:00:52;28.49;41.54
64111;DHT22;50401;48.188;11.566;2022-10-16T08:03:18;27.35;44.41
64111;DHT22;50401;48.188;11.566;2022-10-16T08:05:43;26.20;45.96
64111;DHT22;50401;48.188;11.566;2022-10-16T08:08:11;26.13;46.40
64111;DHT22;50401;48.188;11.566;2022-10-16T08:10:37;27.31;44.39
64111;DHT22;50401;48.188;11.566;2022-10-16T08:13:02;27.76;43.41
64111;DHT22;50401;48.188;11.566;2022-10-16T08:15:28;26.28;45.95
64111;DHT22;50401;48.188;11.566;2022-10-16T08:17:54;27.89;43.29
64111;DHT22;50401;48.188;11.566;2022-10-16T08:20:19;27.85;42.98
64111;DHT22;50401;48.188;11.566;2022-10-16T08:22:45;28.29;42.58
64111;DHT22;50401;48.188;11.566;2022-10-16T08:25:10;30.17;39.19
64111;DHT22;50401;48.188;11.566;2022-10-16T08:27:35;31.11;37.18
64111;DHT22;50401;48.188;11.566;2022-10-16T08:30:00;31.42;36.76
64111;DHT22;50401;48.188;11.566;2022-10-16T08:32:26;32.80;35.31
64111;DHT22;50401;48.188;11.566;2022-10-16T08:34:51;31.80;35.76
64111;DHT22;50401;48.188;11.566;2022-10-16T08:37:16;33.84;33.48
64111;DHT22;50401;48.188;11.566;2022-10-16T08:39:42;34.22;32.42
64111;DHT22;50401;48.188;11.566;2022-10-16T08:45:13;35.18;31.16
64111;DHT22;50401;48.188;11.566;2022-10-16T08:50:14;36.03;29.90
64111;DHT22;50401;48.188;11.566;2022-10-16T08:52:40;36.29;29.90
64111;DHT22;50401;48.188;11.566;2022-10-16T08:55:09;36.54;29.21
64111;DHT22;50401;48.188;11.566;2022-10-16T08:57:41;36.11;29.89
64111;DHT22;50401;48.188;11.566;2022-10-16T09:00:12;35.95;29.72
64111;DHT22;50401;48.188;11.566;2022-10-16T09:02:45;34.94;30.72
64111;DHT22;50401;48.188;11.566;2022-10-16T09:08:08;32.74;33.88
64111;DHT22;50401;48.188;11.566;2022-10-16T09:13:23;31.05;36.22
64111;DHT22;50401;48.188;11.566;2022-10-16T09:21:23;27.31;42.49
64111;DHT22;50401;48.188;11.566;2022-10-16T09:23:50;27.28;43.48
64111;DHT22;50401;48.188;11.566;2022-10-16T09:26:16;25.67;44.40
64111;DHT22;50401;48.188;11.566;2022-10-16T09:28:42;25.89;44.60
64111;DHT22;50401;48.188;11.566;2022-10-16T09:31:13;25.55;45.99
64111;DHT22;50401;48.188;11.566;2022-10-16T09:33:39;25.76;46.67
64111;DHT22;50401;48.188;11.566;2022-10-16T09:36:04;24.92;46.81
64111;DHT22;50401;48.188;11.566;2022-10-16T09:38:31;24.69;47.39
64111;DHT22;50401;48.188;11.566;2022-10-16T09:40:57;23.13;49.86
64111;DHT22;50401;48.188;11.566;2022-10-16T09:43:24;24.01;48.70
64111;DHT22;50401;48.188;11.566;2022-10-16T09:48:21;23.92;49.26
64111;DHT22;50401;48.188;11.566;2022-10-16T09:50:55;23.89;48.91
64111;DHT22;50401;48.188;11.566;2022-10-16T09:53:20;24.05;48.55
64111;DHT22;50401;48.188;11.566;2022-10-16T09:55:51;24.12;48.87
64111;DHT22;50401;48.188;11.566;2022-10-16T09:58:16;24.17;49.08
64111;DHT22;50401;48.188;11.566;2022-10-16T10:00:42;24.10;49.42
64111;DHT22;50401;48.188;11.566;2022-10-16T10:03:15;24.16;48.74
64111;DHT22;50401;48.188;11.566;2022-10-16T10:05:47;24.01;48.80
64111;DHT22;50401;48.188;11.566;2022-10-16T10:08:13;23.89;48.95
64111;DHT22;50401;48.188;11.566;2022-10-16T10:10:41;23.51;50.05
64111;DHT22;50401;48.188;11.566;2022-10-16T10:13:17;23.49;50.33
64111;DHT22;50401;48.188;11.566;2022-10-16T10:15:44;23.36;50.26
64111;DHT22;50401;48.188;11.566;2022-10-16T10:18:19;23.09;50.62
64111;DHT22;50401;48.188;11.566;2022-10-16T10:20:46;23.18;51.09
64111;DHT22;50401;48.188;11.566;2022-10-16T10:23:22;22.97;51.33
64111;DHT22;50401;48.188;11.566;2022-10-16T10:35:56;22.95;53.53
64111;DHT22;50401;48.188;11.566;2022-10-16T10:44:01;22.88;50.50
64111;DHT22;50401;48.188;11.566;2022-10-16T10:46:35;22.90;50.95
64111;DHT22;50401;48.188;11.566;2022-10-16T10:59:19;22.81;50.63
64111;DHT22;50401;48.188;11.566;2022-10-16T11:01:54;22.92;50.04
64111;DHT22;50401;48.188;11.566;2022-10-16T11:06:46;22.95;48.04
64111;DHT22;50401;48.188;11.566;2022-10-16T11:09:20;22.97;48.66
64111;DHT22;50401;48.188;11.566;2022-10-16T11:11:48;22.92;48.86
64111;DHT22;50401;48.188;11.566;2022-10-16T11:16:54;22.95;48.64
64111;DHT22;50401;48.188;11.566;2022-10-16T11:21:48;22.86;49.72
64111;DHT22;50401;48.188;11.566;2022-10-16T11:26:46;22.80;49.97
64111;DHT22;50401;48.188;11.566;2022-10-16T11:29:21;22.83;48.28
64111;DHT22;50401;48.188;11.566;2022-10-16T11:31:49;22.90;47.97
64111;DHT22;50401;48.188;11.566;2022-10-16T11:42:04;23.01;47.35
64111;DHT22;50401;48.188;11.566;2022-10-16T11:47:08;23.04;48.22
64111;DHT22;50401;48.188;11.566;2022-10-16T11:49:36;23.13;47.61
64111;DHT22;50401;48.188;11.566;2022-10-16T11:52:13;23.05;48.12
64111;DHT22;50401;48.188;11.566;2022-10-16T11:54:46;23.06;46.62
64111;DHT22;50401;48.188;11.566;2022-10-16T11:57:32;23.11;46.53
64111;DHT22;50401;48.188;11.566;2022-10-16T12:00:00;23.09;46.52
64111;DHT22;50401;48.188;11.566;2022-10-16T12:02:54;23.05;47.40
64111;DHT22;50401;48.188;11.566;2022-10-16T12:10:22;23.06;47.63
64111;DHT22;50401;48.188;11.566;2022-10-16T12:12:48;23.09;47.28
64111;DHT22;50401;48.188;11.566;2022-10-16T12:15:21;23.12;47.63
64111;DHT22;50401;48.188;11.566;2022-10-16T12:17:46;23.15;47.99
64111;DHT22;50401;48.188;11.566;2022-10-16T12:22:40;23.15;48.51
64111;DHT22;50401;48.188;11.566;2022-10-16T12:25:18;23.13;48.62
64111;DHT22;50401;48.188;11.566;2022-10-16T12:27:44;23.08;48.01
64111;DHT22;50401;48.188;11.566;2022-10-16T12:30:14;23.13;47.80
64111;DHT22;50401;48.188;11.566;2022-10-16T12:32:40;23.11;47.62
64111;DHT22;50401;48.188;11.566;2022-10-16T12:35:16;23.08;47.71
64111;DHT22;50401;48.188;11.566;2022-10-16T12:37:42;23.11;48.64
64111;DHT22;50401;48.188;11.566;2022-10-16T12:40:26;23.11;48.63
64111;DHT22;50401;48.188;11.566;2022-10-16T12:42:51;23.08;47.97
64111;DHT22;50401;48.188;11.566;2022-10-16T12:45:28;23.11;45.93
64111;DHT22;50401;48.188;11.566;2022-10-16T12:47:55;23.08;46.65
64111;DHT22;50401;48.188;11.566;2022-10-16T12:52:48;22.98;48.46
64111;DHT22;50401;48.188;11.566;2022-10-16T12:55:17;23.01;48.73
64111;DHT22;50401;48.188;11.566;2022-10-16T13:19:06;22.84;47.66
64111;DHT22;50401;48.188;11.566;2022-10-16T13:21:49;22.84;47.42
64111;DHT22;50401;48.188;11.566;2022-10-16T13:29:29;22.70;47.50
64111;DHT22;50401;48.188;11.566;2022-10-16T13:31:55;22.67;47.06
64111;DHT22;50401;48.188;11.566;2022-10-16T13:34:21;22.71;47.48
64111;DHT22;50401;48.188;11.566;2022-10-16T13:36:48;22.74;47.07
64111;DHT22;50401;48.188;11.566;2022-10-16T13:41:42;22.74;47.23
64111;DHT22;50401;48.188;11.566;2022-10-16T13:44:41;22.71;47.07
64111;DHT22;50401;48.188;11.566;2022-10-16T13:46:59;22.71;46.65
64111;DHT22;50401;48.188;11.566;2022-10-16T13:49:26;22.68;46.09
64111;DHT22;50401;48.188;11.566;2022-10-16T13:51:55;22.72;46.06
64111;DHT22;50401;48.188;11.566;2022-10-16T13:54:21;22.84;45.65
64111;DHT22;50401;48.188;11.566;2022-10-16T13:56:46;22.80;45.68
64111;DHT22;50401;48.188;11.566;2022-10-16T13:59:24;22.75;46.18
64111;DHT22;50401;48.188;11.566;2022-10-16T14:01:50;22.74;46.33
64111;DHT22;50401;48.188;11.566;2022-10-16T14:04:17;22.78;46.40
64111;DHT22;50401;48.188;11.566;2022-10-16T14:06:43;22.77;46.57
64111;DHT22;50401;48.188;11.566;2022-10-16T14:09:14;22.80;46.36
64111;DHT22;50401;48.188;11.566;2022-10-16T14:12:08;22.84;46.19
64111;DHT22;50401;48.188;11.566;2022-10-16T14:14:35;22.74;46.84
64111;DHT22;50401;48.188;11.566;2022-10-16T14:17:05;22.87;46.73
64111;DHT22;50401;48.188;11.566;2022-10-16T14:19:30;22.88;45.93
64111;DHT22;50401;48.188;11.566;2022-10-16T14:21:56;22.87;45.06
64111;DHT22;50401;48.188;11.566;2022-10-16T14:24:26;22.83;45.47
64111;DHT22;50401;48.188;11.566;2022-10-16T14:26:52;22.83;46.14
64111;DHT22;50401;48.188;11.566;2022-10-16T14:29:20;22.78;46.52
64111;DHT22;50401;48.188;11.566;2022-10-16T14:32:00;22.75;46.72
64111;DHT22;50401;48.188;11.566;2022-10-16T14:34:27;22.71;46.73
64111;DHT22;50401;48.188;11.566;2022-10-16T14:36:54;22.75;46.92
64111;DHT22;50401;48.188;11.566;2022-10-16T14:39:20;22.75;46.75
64111;DHT22;50401;48.188;11.566;2022-10-16T14:41:47;22.74;46.20
64111;DHT22;50401;48.188;11.566;2022-10-16T14:44:12;22.71;46.30
64111;DHT22;50401;48.188;11.566;2022-10-16T14:46:39;22.70;46.47
64111;DHT22;50401;48.188;11.566;2022-10-16T14:49:13;22.63;46.26
64111;DHT22;50401;48.188;11.566;2022-10-16T14:51:40;22.53;46.32
64111;DHT22;50401;48.188;11.566;2022-10-16T14:54:07;22.52;46.53
64111;DHT22;50401;48.188;11.566;2022-10-16T14:56:44;22.50;46.99
64111;DHT22;50401;48.188;11.566;2022-10-16T15:01:54;22.47;49.60
64111;DHT22;50401;48.188;11.566;2022-10-16T15:04:20;22.43;50.76
64111;DHT22;50401;48.188;11.566;2022-10-16T15:06:45;22.40;51.52
64111;DHT22;50401;48.188;11.566;2022-10-16T15:09:10;22.30;52.35
64111;DHT22;50401;48.188;11.566;2022-10-16T15:11:36;22.21;52.87
64111;DHT22;50401;48.188;11.566;2022-10-16T15:14:01;22.19;53.38
64111;DHT22;50401;48.188;11.566;2022-10-16T15:16:26;22.18;53.77
64111;DHT22;50401;48.188;11.566;2022-10-16T15:18:52;22.11;54.17
64111;DHT22;50401;48.188;11.566;2022-10-16T15:21:24;22.09;54.42
64111;DHT22;50401;48.188;11.566;2022-10-16T15:23:51;22.04;54.63
64111;DHT22;50401;48.188;11.566;2022-10-16T15:26:16;21.98;54.83
64111;DHT22;50401;48.188;11.566;2022-10-16T15:28:41;21.93;55.04
64111;DHT22;50401;48.188;11.566;2022-10-16T15:31:07;21.90;55.15
64111;DHT22;50401;48.188;11.566;2022-10-16T15:33:32;21.83;55.50
64111;DHT22;50401;48.188;11.566;2022-10-16T15:35:59;21.83;55.63
64111;DHT22;50401;48.188;11.566;2022-10-16T15:38:25;21.81;55.57
64111;DHT22;50401;48.188;11.566;2022-10-16T15:40:51;21.76;55.83
64111;DHT22;50401;48.188;11.566;2022-10-16T15:43:16;21.73;55.70
64111;DHT22;50401;48.188;11.566;2022-10-16T15:45:42;21.77;55.88
64111;DHT22;50401;48.188;11.566;2022-10-16T15:48:10;21.69;56.09
64111;DHT22;50401;48.188;11.566;2022-10-16T15:50:35;21.61;56.43
64111;DHT22;50401;48.188;11.566;2022-10-16T15:53:02;21.52;56.71
64111;DHT22;50401;48.188;11.566;2022-10-16T15:55:27;21.52;56.77
64111;DHT22;50401;48.188;11.566;2022-10-16T15:57:52;21.47;56.82
64111;DHT22;50401;48.188;11.566;2022-10-16T16:00:19;21.42;57.05
64111;DHT22;50401;48.188;11.566;2022-10-16T16:02:49;21.36;57.42
64111;DHT22;50401;48.188;11.566;2022-10-16T16:05:15;21.31;57.52
64111;DHT22;50401;48.188;11.566;2022-10-16T16:07:40;21.26;57.74
64111;DHT22;50401;48.188;11.566;2022-10-16T16:10:06;21.26;57.90
64111;DHT22;50401;48.188;11.566;2022-10-16T16:12:32;21.24;57.98
64111;DHT22;50401;48.188;11.566;2022-10-16T16:14:57;21.17;58.22
64111;DHT22;50401;48.188;11.566;2022-10-16T16:17:22;21.12;58.48
64111;DHT22;50401;48.188;11.566;2022-10-16T16:19:49;21.05;58.73
64111;DHT22;50401;48.188;11.566;2022-10-16T16:22:14;21.01;58.91
64111;DHT22;50401;48.188;11.566;2022-10-16T16:24:39;20.94;59.38
64111;DHT22;50401;48.188;11.566;2022-10-16T16:27:05;20.88;59.69
64111;DHT22;50401;48.188;11.566;2022-10-16T16:29:30;20.85;59.78
64111;DHT22;50401;48.188;11.566;2022-10-16T16:31:55;20.80;59.91
64111;DHT22;50401;48.188;11.566;2022-10-16T16:34:25;20.80;60.07
64111;DHT22;50401;48.188;11.566;2022-10-16T16:36:51;20.74;60.26
64111;DHT22;50401;48.188;11.566;2022-10-16T16:39:16;20.73;60.44
64111;DHT22;50401;48.188;11.566;2022-10-16T16:41:41;20.66;60.68
64111;DHT22;50401;48.188;11.566;2022-10-16T16:44:08;20.65;60.81
64111;DHT22;50401;48.188;11.566;2022-10-16T16:46:33;20.56;60.82
64111;DHT22;50401;48.188;11.566;2022-10-16T16:48:59;20.56;60.88
64111;DHT22;50401;48.188;11.566;2022-10-16T16:51:24;20.53;61.24
64111;DHT22;50401;48.188;11.566;2022-10-16T16:53:50;20.52;61.25
64111;DHT22;50401;48.188;11.566;2022-10-16T16:56:16;20.46;61.10
64111;DHT22;50401;48.188;11.566;2022-10-16T16:58:41;20.45;61.16
64111;DHT22;50401;48.188;11.566;2022-10-16T17:01:09;20.48;61.07
64111;DHT22;50401;48.188;11.566;2022-10-16T17:03:35;20.38;61.28
64111;DHT22;50401;48.188;11.566;2022-10-16T17:06:07;20.36;61.41
64111;DHT22;50401;48.188;11.566;2022-10-16T17:08:33;20.35;61.38
64111;DHT22;50401;48.188;11.566;2022-10-16T17:10:58;20.32;61.57
64111;DHT22;50401;48.188;11.566;2022-10-16T17:13:24;20.22;61.79